sensor_id;sensor_type;location;lat;lon;timestamp;P1;durP1;ratioP1;P2;durP2;ratioP2
55003;SDS011;40900;52.710;6.438;2022-08-19T00:00:23;7.22;;;5.93;;
55003;SDS011;40900;52.710;6.438;2022-08-19T00:02:50;7.82;;;6.15;;
55003;SDS011;40900;52.710;6.438;2022-08-19T00:05:16;8.60;;;6.68;;
55003;SDS011;40900;52.710;6.438;2022-08-19T00:07:43;8.48;;;6.82;;
55003;SDS011;40900;52.710;6.438;2022-08-19T00:10:09;10.23;;;6.57;;
55003;SDS011;40900;52.710;6.438;2022-08-19T00:12:36;8.43;;;6.65;;
55003;SDS011;40900;52.710;6.438;2022-08-19T00:15:07;8.20;;;6.13;;
55003;SDS011;40900;52.710;6.438;2022-08-19T00:20:07;8.20;;;4.95;;
55003;SDS011;40900;52.710;6.438;2022-08-19T00:22:35;5.97;;;4.63;;
55003;SDS011;40900;52.710;6.438;2022-08-19T00:25:02;7.28;;;5.03;;
55003;SDS011;40900;52.710;6.438;2022-08-19T00:27:28;9.00;;;4.95;;
55003;SDS011;40900;52.710;6.438;2022-08-19T00:29:53;5.13;;;4.63;;
55003;SDS011;40900;52.710;6.438;2022-08-19T00:32:19;8.32;;;5.60;;
55003;SDS011;40900;52.710;6.438;2022-08-19T00:34:45;8.57;;;5.30;;
55003;SDS011;40900;52.710;6.438;2022-08-19T00:37:11;7.30;;;5.47;;
55003;SDS011;40900;52.710;6.438;2022-08-19T00:39:37;7.43;;;6.32;;
55003;SDS011;40900;52.710;6.438;2022-08-19T00:42:03;8.57;;;6.40;;
55003;SDS011;40900;52.710;6.438;2022-08-19T00:44:31;7.55;;;6.43;;
55003;SDS011;40900;52.710;6.438;2022-08-19T00:46:57;9.30;;;7.47;;
55003;SDS011;40900;52.710;6.438;2022-08-19T00:49:25;8.70;;;7.00;;
55003;SDS011;40900;52.710;6.438;2022-08-19T00:52:00;10.80;;;7.35;;
55003;SDS011;40900;52.710;6.438;2022-08-19T00:54:37;12.18;;;7.65;;
55003;SDS011;40900;52.710;6.438;2022-08-19T00:57:05;11.60;;;7.88;;
55003;SDS011;40900;52.710;6.438;2022-08-19T00:59:34;9.20;;;8.30;;
55003;SDS011;40900;52.710;6.438;2022-08-19T01:02:01;10.60;;;8.18;;
55003;SDS011;40900;52.710;6.438;2022-08-19T01:04:28;8.52;;;7.63;;
55003;SDS011;40900;52.710;6.438;2022-08-19T01:06:54;9.40;;;8.43;;
55003;SDS011;40900;52.710;6.438;2022-08-19T01:09:21;11.10;;;8.77;;
55003;SDS011;40900;52.710;6.438;2022-08-19T01:11:47;12.27;;;9.23;;
55003;SDS011;40900;52.710;6.438;2022-08-19T01:14:12;9.63;;;8.48;;
55003;SDS011;40900;52.710;6.438;2022-08-19T01:16:40;12.48;;;9.30;;
55003;SDS011;40900;52.710;6.438;2022-08-19T01:19:09;11.05;;;9.98;;
55003;SDS011;40900;52.710;6.438;2022-08-19T01:21:45;12.25;;;9.52;;
55003;SDS011;40900;52.710;6.438;2022-08-19T01:24:17;14.85;;;9.70;;
55003;SDS011;40900;52.710;6.438;2022-08-19T01:26:45;12.48;;;9.55;;
55003;SDS011;40900;52.710;6.438;2022-08-19T01:29:11;10.95;;;9.88;;
55003;SDS011;40900;52.710;6.438;2022-08-19T01:31:37;12.52;;;10.02;;
55003;SDS011;40900;52.710;6.438;2022-08-19T01:34:04;12.43;;;9.77;;
55003;SDS011;40900;52.710;6.438;2022-08-19T01:36:35;14.63;;;10.23;;
55003;SDS011;40900;52.710;6.438;2022-08-19T01:39:05;13.50;;;9.93;;
55003;SDS011;40900;52.710;6.438;2022-08-19T01:41:33;15.27;;;11.30;;
55003;SDS011;40900;52.710;6.438;2022-08-19T01:43:59;12.25;;;11.05;;
55003;SDS011;40900;52.710;6.438;2022-08-19T01:46:28;12.30;;;10.85;;
55003;SDS011;40900;52.710;6.438;2022-08-19T01:48:55;13.40;;;12.00;;
55003;SDS011;40900;52.710;6.438;2022-08-19T01:51:20;12.82;;;10.98;;
55003;SDS011;40900;52.710;6.438;2022-08-19T01:53:49;15.80;;;12.15;;
55003;SDS011;40900;52.710;6.438;2022-08-19T01:56:16;14.93;;;12.35;;
55003;SDS011;40900;52.710;6.438;2022-08-19T01:58:45;13.00;;;11.73;;
55003;SDS011;40900;52.710;6.438;2022-08-19T02:01:32;13.77;;;12.15;;
55003;SDS011;40900;52.710;6.438;2022-08-19T02:03:59;13.02;;;11.73;;
55003;SDS011;40900;52.710;6.438;2022-08-19T02:06:25;14.30;;;11.95;;
55003;SDS011;40900;52.710;6.438;2022-08-19T02:08:52;14.68;;;11.77;;
55003;SDS011;40900;52.710;6.438;2022-08-19T02:11:19;13.57;;;11.82;;
55003;SDS011;40900;52.710;6.438;2022-08-19T02:13:46;16.65;;;12.93;;
55003;SDS011;40900;52.710;6.438;2022-08-19T02:16:12;18.02;;;12.88;;
55003;SDS011;40900;52.710;6.438;2022-08-19T02:18:37;15.43;;;12.57;;
55003;SDS011;40900;52.710;6.438;2022-08-19T02:21:03;14.35;;;12.85;;
55003;SDS011;40900;52.710;6.438;2022-08-19T02:23:29;14.48;;;12.93;;
55003;SDS011;40900;52.710;6.438;2022-08-19T02:25:56;14.50;;;12.52;;
55003;SDS011;40900;52.710;6.438;2022-08-19T02:28:21;15.20;;;13.60;;
55003;SDS011;40900;52.710;6.438;2022-08-19T02:30:47;13.70;;;12.38;;
55003;SDS011;40900;52.710;6.438;2022-08-19T02:33:13;15.50;;;14.00;;
55003;SDS011;40900;52.710;6.438;2022-08-19T02:35:46;16.38;;;14.23;;
55003;SDS011;40900;52.710;6.438;2022-08-19T02:38:12;16.55;;;14.48;;
55003;SDS011;40900;52.710;6.438;2022-08-19T02:40:51;15.55;;;13.93;;
55003;SDS011;40900;52.710;6.438;2022-08-19T02:43:22;16.45;;;14.85;;
55003;SDS011;40900;52.710;6.438;2022-08-19T02:45:51;17.80;;;14.38;;
55003;SDS011;40900;52.710;6.438;2022-08-19T02:48:21;16.50;;;14.60;;
55003;SDS011;40900;52.710;6.438;2022-08-19T02:50:49;15.15;;;13.70;;
55003;SDS011;40900;52.710;6.438;2022-08-19T02:53:26;17.08;;;14.05;;
55003;SDS011;40900;52.710;6.438;2022-08-19T02:55:52;16.38;;;14.38;;
55003;SDS011;40900;52.710;6.438;2022-08-19T02:58:19;17.17;;;15.35;;
55003;SDS011;40900;52.710;6.438;2022-08-19T03:00:50;16.95;;;15.15;;
55003;SDS011;40900;52.710;6.438;2022-08-19T03:03:18;17.55;;;15.82;;
55003;SDS011;40900;52.710;6.438;2022-08-19T03:05:45;16.65;;;15.05;;
55003;SDS011;40900;52.710;6.438;2022-08-19T03:08:12;17.52;;;15.68;;
55003;SDS011;40900;52.710;6.438;2022-08-19T03:10:44;17.05;;;15.23;;
55003;SDS011;40900;52.710;6.438;2022-08-19T03:13:12;18.48;;;15.15;;
55003;SDS011;40900;52.710;6.438;2022-08-19T03:15:44;17.85;;;16.10;;
55003;SDS011;40900;52.710;6.438;2022-08-19T03:18:11;17.38;;;15.57;;
55003;SDS011;40900;52.710;6.438;2022-08-19T03:20:42;17.55;;;15.60;;
55003;SDS011;40900;52.710;6.438;2022-08-19T03:23:12;12.95;;;11.60;;
55003;SDS011;40900;52.710;6.438;2022-08-19T03:25:44;17.30;;;15.50;;
55003;SDS011;40900;52.710;6.438;2022-08-19T03:28:13;16.48;;;14.88;;
55003;SDS011;40900;52.710;6.438;2022-08-19T03:30:40;17.27;;;15.20;;
55003;SDS011;40900;52.710;6.438;2022-08-19T03:33:07;18.77;;;15.95;;
55003;SDS011;40900;52.710;6.438;2022-08-19T03:35:34;16.70;;;15.02;;
55003;SDS011;40900;52.710;6.438;2022-08-19T03:38:04;15.57;;;14.02;;
55003;SDS011;40900;52.710;6.438;2022-08-19T03:40:31;16.42;;;14.77;;
55003;SDS011;40900;52.710;6.438;2022-08-19T03:42:59;15.07;;;13.63;;
55003;SDS011;40900;52.710;6.438;2022-08-19T03:45:25;14.70;;;12.85;;
55003;SDS011;40900;52.710;6.438;2022-08-19T03:47:52;15.00;;;13.50;;
55003;SDS011;40900;52.710;6.438;2022-08-19T03:50:18;15.15;;;12.90;;
55003;SDS011;40900;52.710;6.438;2022-08-19T03:52:48;14.68;;;13.25;;
55003;SDS011;40900;52.710;6.438;2022-08-19T03:55:15;13.50;;;12.20;;
55003;SDS011;40900;52.710;6.438;2022-08-19T03:57:41;14.77;;;13.15;;
55003;SDS011;40900;52.710;6.438;2022-08-19T04:00:07;15.00;;;13.45;;
55003;SDS011;40900;52.710;6.438;2022-08-19T04:02:34;15.75;;;13.63;;
55003;SDS011;40900;52.710;6.438;2022-08-19T04:04:59;16.45;;;14.18;;
55003;SDS011;40900;52.710;6.438;2022-08-19T04:07:25;14.23;;;12.75;;
55003;SDS011;40900;52.710;6.438;2022-08-19T04:09:51;13.80;;;12.50;;
55003;SDS011;40900;52.710;6.438;2022-08-19T04:12:18;14.85;;;13.43;;
55003;SDS011;40900;52.710;6.438;2022-08-19T04:14:45;15.38;;;13.85;;
55003;SDS011;40900;52.710;6.438;2022-08-19T04:17:11;15.73;;;14.13;;
55003;SDS011;40900;52.710;6.438;2022-08-19T04:19:39;16.15;;;14.45;;
55003;SDS011;40900;52.710;6.438;2022-08-19T04:22:06;16.55;;;14.80;;
55003;SDS011;40900;52.710;6.438;2022-08-19T04:24:32;15.65;;;14.00;;
55003;SDS011;40900;52.710;6.438;2022-08-19T04:27:02;15.60;;;14.00;;
55003;SDS011;40900;52.710;6.438;2022-08-19T04:29:29;15.77;;;14.20;;
55003;SDS011;40900;52.710;6.438;2022-08-19T04:31:55;16.25;;;14.55;;
55003;SDS011;40900;52.710;6.438;2022-08-19T04:34:22;16.00;;;14.50;;
55003;SDS011;40900;52.710;6.438;2022-08-19T04:36:50;16.10;;;14.52;;
55003;SDS011;40900;52.710;6.438;2022-08-19T04:39:19;19.65;;;15.82;;
55003;SDS011;40900;52.710;6.438;2022-08-19T04:41:46;17.15;;;15.35;;
55003;SDS011;40900;52.710;6.438;2022-08-19T04:44:31;17.95;;;14.73;;
55003;SDS011;40900;52.710;6.438;2022-08-19T04:46:59;15.75;;;14.25;;
55003;SDS011;40900;52.710;6.438;2022-08-19T04:49:25;17.75;;;15.27;;
55003;SDS011;40900;52.710;6.438;2022-08-19T04:51:52;17.08;;;15.38;;
55003;SDS011;40900;52.710;6.438;2022-08-19T04:54:19;17.45;;;15.52;;
55003;SDS011;40900;52.710;6.438;2022-08-19T04:56:48;17.17;;;15.48;;
55003;SDS011;40900;52.710;6.438;2022-08-19T04:59:15;20.60;;;15.65;;
55003;SDS011;40900;52.710;6.438;2022-08-19T05:01:43;18.35;;;16.42;;
55003;SDS011;40900;52.710;6.438;2022-08-19T05:04:14;16.75;;;15.15;;
55003;SDS011;40900;52.710;6.438;2022-08-19T05:06:42;18.02;;;16.13;;
55003;SDS011;40900;52.710;6.438;2022-08-19T05:09:08;18.13;;;16.33;;
55003;SDS011;40900;52.710;6.438;2022-08-19T05:11:34;16.88;;;15.27;;
55003;SDS011;40900;52.710;6.438;2022-08-19T05:14:06;19.08;;;16.00;;
55003;SDS011;40900;52.710;6.438;2022-08-19T05:16:32;16.17;;;14.68;;
55003;SDS011;40900;52.710;6.438;2022-08-19T05:18:58;16.35;;;14.75;;
55003;SDS011;40900;52.710;6.438;2022-08-19T05:21:43;15.63;;;14.13;;
55003;SDS011;40900;52.710;6.438;2022-08-19T05:24:28;19.23;;;17.23;;
55003;SDS011;40900;52.710;6.438;2022-08-19T05:26:55;19.77;;;17.20;;
55003;SDS011;40900;52.710;6.438;2022-08-19T05:29:22;18.85;;;16.95;;
55003;SDS011;40900;52.710;6.438;2022-08-19T05:31:50;21.40;;;17.02;;
55003;SDS011;40900;52.710;6.438;2022-08-19T05:34:17;19.80;;;16.60;;
55003;SDS011;40900;52.710;6.438;2022-08-19T05:36:49;20.02;;;17.63;;
55003;SDS011;40900;52.710;6.438;2022-08-19T05:39:17;20.33;;;18.23;;
55003;SDS011;40900;52.710;6.438;2022-08-19T05:41:45;19.67;;;17.58;;
55003;SDS011;40900;52.710;6.438;2022-08-19T05:44:12;20.10;;;18.10;;
55003;SDS011;40900;52.710;6.438;2022-08-19T05:46:39;20.63;;;18.58;;
55003;SDS011;40900;52.710;6.438;2022-08-19T05:49:06;19.33;;;17.13;;
55003;SDS011;40900;52.710;6.438;2022-08-19T05:51:33;19.65;;;17.67;;
55003;SDS011;40900;52.710;6.438;2022-08-19T05:54:00;19.75;;;17.55;;
55003;SDS011;40900;52.710;6.438;2022-08-19T05:56:27;19.63;;;17.52;;
55003;SDS011;40900;52.710;6.438;2022-08-19T05:58:55;20.63;;;18.52;;
55003;SDS011;40900;52.710;6.438;2022-08-19T06:01:21;19.95;;;17.83;;
55003;SDS011;40900;52.710;6.438;2022-08-19T06:03:47;21.33;;;18.65;;
55003;SDS011;40900;52.710;6.438;2022-08-19T06:06:13;21.63;;;19.27;;
55003;SDS011;40900;52.710;6.438;2022-08-19T06:08:40;22.17;;;19.63;;
55003;SDS011;40900;52.710;6.438;2022-08-19T06:11:15;23.00;;;20.52;;
55003;SDS011;40900;52.710;6.438;2022-08-19T06:13:43;22.48;;;20.25;;
55003;SDS011;40900;52.710;6.438;2022-08-19T06:16:12;23.17;;;20.67;;
55003;SDS011;40900;52.710;6.438;2022-08-19T06:18:39;24.13;;;21.52;;
55003;SDS011;40900;52.710;6.438;2022-08-19T06:21:05;27.55;;;20.95;;
55003;SDS011;40900;52.710;6.438;2022-08-19T06:23:30;23.65;;;21.17;;
55003;SDS011;40900;52.710;6.438;2022-08-19T06:25:56;26.30;;;21.17;;
55003;SDS011;40900;52.710;6.438;2022-08-19T06:28:22;25.02;;;21.10;;
55003;SDS011;40900;52.710;6.438;2022-08-19T06:30:48;26.10;;;21.08;;
55003;SDS011;40900;52.710;6.438;2022-08-19T06:33:16;22.40;;;20.17;;
55003;SDS011;40900;52.710;6.438;2022-08-19T06:35:41;25.02;;;20.23;;
55003;SDS011;40900;52.710;6.438;2022-08-19T06:38:07;22.98;;;20.73;;
55003;SDS011;40900;52.710;6.438;2022-08-19T06:40:34;22.23;;;19.65;;
55003;SDS011;40900;52.710;6.438;2022-08-19T06:43:02;24.33;;;20.75;;
55003;SDS011;40900;52.710;6.438;2022-08-19T06:45:28;22.05;;;19.75;;
55003;SDS011;40900;52.710;6.438;2022-08-19T06:47:55;24.02;;;20.58;;
55003;SDS011;40900;52.710;6.438;2022-08-19T06:50:22;22.55;;;19.48;;
55003;SDS011;40900;52.710;6.438;2022-08-19T06:52:48;21.17;;;18.98;;
55003;SDS011;40900;52.710;6.438;2022-08-19T06:55:14;23.50;;;18.05;;
55003;SDS011;40900;52.710;6.438;2022-08-19T06:57:41;20.92;;;18.40;;
55003;SDS011;40900;52.710;6.438;2022-08-19T07:00:07;22.17;;;19.80;;
55003;SDS011;40900;52.710;6.438;2022-08-19T07:02:41;20.65;;;18.35;;
55003;SDS011;40900;52.710;6.438;2022-08-19T07:05:08;21.65;;;18.75;;
55003;SDS011;40900;52.710;6.438;2022-08-19T07:07:34;21.70;;;18.52;;
55003;SDS011;40900;52.710;6.438;2022-08-19T07:10:00;21.45;;;18.65;;
55003;SDS011;40900;52.710;6.438;2022-08-19T07:12:27;21.90;;;18.42;;
55003;SDS011;40900;52.710;6.438;2022-08-19T07:14:58;20.48;;;17.60;;
55003;SDS011;40900;52.710;6.438;2022-08-19T07:17:24;31.05;;;19.10;;
55003;SDS011;40900;52.710;6.438;2022-08-19T07:19:50;21.23;;;18.45;;
55003;SDS011;40900;52.710;6.438;2022-08-19T07:22:16;20.23;;;18.13;;
55003;SDS011;40900;52.710;6.438;2022-08-19T07:24:43;21.52;;;19.30;;
55003;SDS011;40900;52.710;6.438;2022-08-19T07:27:09;20.38;;;18.25;;
55003;SDS011;40900;52.710;6.438;2022-08-19T07:29:35;20.55;;;18.05;;
55003;SDS011;40900;52.710;6.438;2022-08-19T07:32:01;20.95;;;18.73;;
55003;SDS011;40900;52.710;6.438;2022-08-19T07:34:29;20.90;;;18.73;;
55003;SDS011;40900;52.710;6.438;2022-08-19T07:36:55;19.80;;;17.80;;
55003;SDS011;40900;52.710;6.438;2022-08-19T07:39:24;20.08;;;18.08;;
55003;SDS011;40900;52.710;6.438;2022-08-19T07:41:53;23.13;;;17.63;;
55003;SDS011;40900;52.710;6.438;2022-08-19T07:44:20;19.27;;;17.23;;
55003;SDS011;40900;52.710;6.438;2022-08-19T07:46:47;20.98;;;17.98;;
55003;SDS011;40900;52.710;6.438;2022-08-19T07:49:17;22.48;;;17.88;;
55003;SDS011;40900;52.710;6.438;2022-08-19T07:51:45;20.45;;;18.35;;
55003;SDS011;40900;52.710;6.438;2022-08-19T07:54:15;20.23;;;18.13;;
55003;SDS011;40900;52.710;6.438;2022-08-19T07:56:42;20.15;;;17.88;;
55003;SDS011;40900;52.710;6.438;2022-08-19T07:59:07;20.65;;;18.48;;
55003;SDS011;40900;52.710;6.438;2022-08-19T08:01:34;20.13;;;17.60;;
55003;SDS011;40900;52.710;6.438;2022-08-19T08:04:01;24.65;;;17.27;;
55003;SDS011;40900;52.710;6.438;2022-08-19T08:06:45;17.25;;;15.48;;
55003;SDS011;40900;52.710;6.438;2022-08-19T08:09:35;19.02;;;17.08;;
55003;SDS011;40900;52.710;6.438;2022-08-19T08:12:04;18.83;;;16.17;;
55003;SDS011;40900;52.710;6.438;2022-08-19T08:14:34;19.38;;;17.40;;
55003;SDS011;40900;52.710;6.438;2022-08-19T08:17:05;19.25;;;16.90;;
55003;SDS011;40900;52.710;6.438;2022-08-19T08:19:31;19.75;;;16.67;;
55003;SDS011;40900;52.710;6.438;2022-08-19T08:21:58;18.65;;;16.65;;
55003;SDS011;40900;52.710;6.438;2022-08-19T08:24:26;19.25;;;16.73;;
55003;SDS011;40900;52.710;6.438;2022-08-19T08:26:53;21.13;;;17.85;;
55003;SDS011;40900;52.710;6.438;2022-08-19T08:29:19;20.40;;;17.58;;
55003;SDS011;40900;52.710;6.438;2022-08-19T08:31:45;19.92;;;16.10;;
55003;SDS011;40900;52.710;6.438;2022-08-19T08:34:12;18.90;;;16.58;;
55003;SDS011;40900;52.710;6.438;2022-08-19T08:36:39;17.80;;;15.75;;
55003;SDS011;40900;52.710;6.438;2022-08-19T08:39:10;16.95;;;14.30;;
55003;SDS011;40900;52.710;6.438;2022-08-19T08:41:46;16.17;;;14.52;;
55003;SDS011;40900;52.710;6.438;2022-08-19T08:44:23;15.88;;;14.30;;
55003;SDS011;40900;52.710;6.438;2022-08-19T08:46:58;15.57;;;14.07;;
55003;SDS011;40900;52.710;6.438;2022-08-19T08:52:13;13.70;;;12.40;;
55003;SDS011;40900;52.710;6.438;2022-08-19T08:54:47;16.13;;;14.65;;
55003;SDS011;40900;52.710;6.438;2022-08-19T08:57:18;14.18;;;12.85;;
55003;SDS011;40900;52.710;6.438;2022-08-19T08:59:49;14.07;;;12.65;;
55003;SDS011;40900;52.710;6.438;2022-08-19T09:02:18;14.50;;;13.15;;
55003;SDS011;40900;52.710;6.438;2022-08-19T09:04:44;13.90;;;12.50;;
55003;SDS011;40900;52.710;6.438;2022-08-19T09:07:18;13.55;;;12.27;;
55003;SDS011;40900;52.710;6.438;2022-08-19T09:09:52;13.20;;;11.85;;
55003;SDS011;40900;52.710;6.438;2022-08-19T09:12:55;14.88;;;13.27;;
55003;SDS011;40900;52.710;6.438;2022-08-19T09:15:25;14.50;;;13.10;;
55003;SDS011;40900;52.710;6.438;2022-08-19T09:17:59;15.63;;;12.38;;
55003;SDS011;40900;52.710;6.438;2022-08-19T09:20:27;15.63;;;14.18;;
55003;SDS011;40900;52.710;6.438;2022-08-19T09:22:53;15.38;;;13.98;;
55003;SDS011;40900;52.710;6.438;2022-08-19T09:25:20;15.52;;;13.85;;
55003;SDS011;40900;52.710;6.438;2022-08-19T09:27:48;13.15;;;11.85;;
55003;SDS011;40900;52.710;6.438;2022-08-19T09:30:21;14.25;;;12.95;;
55003;SDS011;40900;52.710;6.438;2022-08-19T09:32:49;14.88;;;13.40;;
55003;SDS011;40900;52.710;6.438;2022-08-19T09:35:17;11.65;;;10.55;;
55003;SDS011;40900;52.710;6.438;2022-08-19T09:37:44;12.13;;;10.90;;
55003;SDS011;40900;52.710;6.438;2022-08-19T09:40:11;12.40;;;11.18;;
55003;SDS011;40900;52.710;6.438;2022-08-19T09:42:37;16.05;;;13.50;;
55003;SDS011;40900;52.710;6.438;2022-08-19T09:45:03;15.10;;;13.70;;
55003;SDS011;40900;52.710;6.438;2022-08-19T09:47:29;14.02;;;12.70;;
55003;SDS011;40900;52.710;6.438;2022-08-19T09:49:57;12.60;;;11.40;;
55003;SDS011;40900;52.710;6.438;2022-08-19T09:52:24;10.48;;;9.02;;
55003;SDS011;40900;52.710;6.438;2022-08-19T09:54:51;11.95;;;10.75;;
55003;SDS011;40900;52.710;6.438;2022-08-19T09:57:18;14.43;;;12.65;;
55003;SDS011;40900;52.710;6.438;2022-08-19T09:59:43;12.20;;;11.00;;
55003;SDS011;40900;52.710;6.438;2022-08-19T10:02:10;14.35;;;11.82;;
55003;SDS011;40900;52.710;6.438;2022-08-19T10:04:35;13.50;;;11.25;;
55003;SDS011;40900;52.710;6.438;2022-08-19T10:09:45;11.73;;;10.43;;
55003;SDS011;40900;52.710;6.438;2022-08-19T10:12:12;13.23;;;11.73;;
55003;SDS011;40900;52.710;6.438;2022-08-19T10:14:40;12.93;;;11.60;;
55003;SDS011;40900;52.710;6.438;2022-08-19T10:17:08;13.10;;;11.90;;
55003;SDS011;40900;52.710;6.438;2022-08-19T10:19:36;12.55;;;10.95;;
55003;SDS011;40900;52.710;6.438;2022-08-19T10:22:04;11.20;;;10.10;;
55003;SDS011;40900;52.710;6.438;2022-08-19T10:24:32;12.82;;;10.90;;
55003;SDS011;40900;52.710;6.438;2022-08-19T10:27:00;12.38;;;10.25;;
55003;SDS011;40900;52.710;6.438;2022-08-19T10:29:29;12.85;;;11.55;;
55003;SDS011;40900;52.710;6.438;2022-08-19T10:31:57;13.32;;;12.07;;
55003;SDS011;40900;52.710;6.438;2022-08-19T10:34:25;11.93;;;10.73;;
55003;SDS011;40900;52.710;6.438;2022-08-19T10:36:51;11.15;;;9.40;;
55003;SDS011;40900;52.710;6.438;2022-08-19T10:39:17;10.00;;;9.00;;
55003;SDS011;40900;52.710;6.438;2022-08-19T10:41:43;10.75;;;9.20;;
55003;SDS011;40900;52.710;6.438;2022-08-19T10:44:11;9.05;;;8.15;;
55003;SDS011;40900;52.710;6.438;2022-08-19T10:46:39;12.23;;;11.00;;
55003;SDS011;40900;52.710;6.438;2022-08-19T10:49:07;10.73;;;9.50;;
55003;SDS011;40900;52.710;6.438;2022-08-19T10:51:34;15.32;;;12.00;;
55003;SDS011;40900;52.710;6.438;2022-08-19T10:54:20;17.98;;;13.40;;
55003;SDS011;40900;52.710;6.438;2022-08-19T10:56:46;15.07;;;12.05;;
55003;SDS011;40900;52.710;6.438;2022-08-19T11:01:52;17.08;;;14.15;;
55003;SDS011;40900;52.710;6.438;2022-08-19T11:04:19;14.77;;;12.65;;
55003;SDS011;40900;52.710;6.438;2022-08-19T11:06:47;13.68;;;12.25;;
55003;SDS011;40900;52.710;6.438;2022-08-19T11:09:16;15.85;;;14.23;;
55003;SDS011;40900;52.710;6.438;2022-08-19T11:11:44;16.52;;;14.77;;
55003;SDS011;40900;52.710;6.438;2022-08-19T11:14:11;13.50;;;11.15;;
55003;SDS011;40900;52.710;6.438;2022-08-19T11:16:39;13.73;;;12.32;;
55003;SDS011;40900;52.710;6.438;2022-08-19T11:19:06;12.73;;;10.85;;
55003;SDS011;40900;52.710;6.438;2022-08-19T11:21:35;14.80;;;13.02;;
55003;SDS011;40900;52.710;6.438;2022-08-19T11:24:05;14.63;;;13.20;;
55003;SDS011;40900;52.710;6.438;2022-08-19T11:26:35;14.75;;;12.98;;
55003;SDS011;40900;52.710;6.438;2022-08-19T11:29:05;15.77;;;12.93;;
55003;SDS011;40900;52.710;6.438;2022-08-19T11:31:36;18.05;;;14.77;;
55003;SDS011;40900;52.710;6.438;2022-08-19T11:34:05;14.70;;;13.20;;
55003;SDS011;40900;52.710;6.438;2022-08-19T11:36:36;13.77;;;12.35;;
55003;SDS011;40900;52.710;6.438;2022-08-19T11:39:04;18.52;;;16.23;;
55003;SDS011;40900;52.710;6.438;2022-08-19T11:41:31;15.18;;;11.75;;
55003;SDS011;40900;52.710;6.438;2022-08-19T11:43:57;10.35;;;9.20;;
55003;SDS011;40900;52.710;6.438;2022-08-19T11:46:23;13.95;;;12.45;;
55003;SDS011;40900;52.710;6.438;2022-08-19T11:48:50;16.85;;;15.05;;
55003;SDS011;40900;52.710;6.438;2022-08-19T11:51:19;14.27;;;12.75;;
55003;SDS011;40900;52.710;6.438;2022-08-19T11:53:47;13.70;;;11.90;;
55003;SDS011;40900;52.710;6.438;2022-08-19T11:56:13;14.10;;;11.93;;
55003;SDS011;40900;52.710;6.438;2022-08-19T11:58:39;15.77;;;12.50;;
55003;SDS011;40900;52.710;6.438;2022-08-19T12:01:08;13.32;;;11.88;;
55003;SDS011;40900;52.710;6.438;2022-08-19T12:03:36;10.43;;;9.32;;
55003;SDS011;40900;52.710;6.438;2022-08-19T12:06:06;10.32;;;9.15;;
55003;SDS011;40900;52.710;6.438;2022-08-19T12:08:38;16.30;;;12.02;;
55003;SDS011;40900;52.710;6.438;2022-08-19T12:11:05;18.67;;;12.75;;
55003;SDS011;40900;52.710;6.438;2022-08-19T12:13:33;15.52;;;12.50;;
55003;SDS011;40900;52.710;6.438;2022-08-19T12:16:00;17.65;;;15.93;;
55003;SDS011;40900;52.710;6.438;2022-08-19T12:18:31;17.70;;;15.70;;
55003;SDS011;40900;52.710;6.438;2022-08-19T12:20:57;17.27;;;14.45;;
55003;SDS011;40900;52.710;6.438;2022-08-19T12:23:25;16.08;;;14.32;;
55003;SDS011;40900;52.710;6.438;2022-08-19T12:25:51;18.15;;;13.23;;
55003;SDS011;40900;52.710;6.438;2022-08-19T12:28:20;16.20;;;14.50;;
55003;SDS011;40900;52.710;6.438;2022-08-19T12:30:48;18.58;;;15.00;;
55003;SDS011;40900;52.710;6.438;2022-08-19T12:33:18;14.23;;;12.73;;
55003;SDS011;40900;52.710;6.438;2022-08-19T12:35:44;16.45;;;14.75;;
55003;SDS011;40900;52.710;6.438;2022-08-19T12:38:14;15.80;;;12.73;;
55003;SDS011;40900;52.710;6.438;2022-08-19T12:40:40;14.15;;;12.73;;
55003;SDS011;40900;52.710;6.438;2022-08-19T12:43:07;15.55;;;13.45;;
55003;SDS011;40900;52.710;6.438;2022-08-19T12:45:33;17.55;;;15.25;;
55003;SDS011;40900;52.710;6.438;2022-08-19T12:47:59;13.70;;;12.35;;
55003;SDS011;40900;52.710;6.438;2022-08-19T12:50:25;13.15;;;11.57;;
55003;SDS011;40900;52.710;6.438;2022-08-19T12:52:50;12.85;;;10.98;;
55003;SDS011;40900;52.710;6.438;2022-08-19T12:55:16;14.77;;;13.27;;
55003;SDS011;40900;52.710;6.438;2022-08-19T12:57:43;20.20;;;16.25;;
55003;SDS011;40900;52.710;6.438;2022-08-19T13:00:11;20.83;;;18.63;;
55003;SDS011;40900;52.710;6.438;2022-08-19T13:02:39;20.70;;;15.80;;
55003;SDS011;40900;52.710;6.438;2022-08-19T13:05:07;16.55;;;14.85;;
55003;SDS011;40900;52.710;6.438;2022-08-19T13:07:36;18.85;;;15.18;;
55003;SDS011;40900;52.710;6.438;2022-08-19T13:10:04;16.33;;;12.30;;
55003;SDS011;40900;52.710;6.438;2022-08-19T13:12:31;18.17;;;13.45;;
55003;SDS011;40900;52.710;6.438;2022-08-19T13:14:56;20.17;;;12.40;;
55003;SDS011;40900;52.710;6.438;2022-08-19T13:17:22;14.18;;;11.52;;
55003;SDS011;40900;52.710;6.438;2022-08-19T13:19:48;15.38;;;11.50;;
55003;SDS011;40900;52.710;6.438;2022-08-19T13:22:13;14.55;;;10.65;;
55003;SDS011;40900;52.710;6.438;2022-08-19T13:24:39;15.90;;;12.95;;
55003;SDS011;40900;52.710;6.438;2022-08-19T13:27:05;14.27;;;11.25;;
55003;SDS011;40900;52.710;6.438;2022-08-19T13:29:32;13.85;;;11.45;;
55003;SDS011;40900;52.710;6.438;2022-08-19T13:32:16;12.55;;;9.45;;
55003;SDS011;40900;52.710;6.438;2022-08-19T13:35:01;12.25;;;9.90;;
55003;SDS011;40900;52.710;6.438;2022-08-19T13:37:27;13.15;;;11.20;;
55003;SDS011;40900;52.710;6.438;2022-08-19T13:40:23;10.82;;;9.60;;
55003;SDS011;40900;52.710;6.438;2022-08-19T13:42:52;12.27;;;10.00;;
55003;SDS011;40900;52.710;6.438;2022-08-19T13:45:20;8.00;;;6.60;;
55003;SDS011;40900;52.710;6.438;2022-08-19T13:47:50;10.68;;;6.55;;
55003;SDS011;40900;52.710;6.438;2022-08-19T13:50:18;8.75;;;6.15;;
55003;SDS011;40900;52.710;6.438;2022-08-19T13:52:46;9.20;;;6.78;;
55003;SDS011;40900;52.710;6.438;2022-08-19T13:55:13;9.07;;;7.32;;
55003;SDS011;40900;52.710;6.438;2022-08-19T13:57:40;9.05;;;6.65;;
55003;SDS011;40900;52.710;6.438;2022-08-19T14:02:38;8.52;;;6.65;;
55003;SDS011;40900;52.710;6.438;2022-08-19T14:05:08;10.85;;;8.27;;
55003;SDS011;40900;52.710;6.438;2022-08-19T14:07:36;13.00;;;8.50;;
55003;SDS011;40900;52.710;6.438;2022-08-19T14:10:02;13.63;;;9.30;;
55003;SDS011;40900;52.710;6.438;2022-08-19T14:12:29;12.27;;;9.30;;
55003;SDS011;40900;52.710;6.438;2022-08-19T14:14:57;11.68;;;9.73;;
55003;SDS011;40900;52.710;6.438;2022-08-19T14:17:23;15.35;;;10.13;;
55003;SDS011;40900;52.710;6.438;2022-08-19T14:19:50;12.88;;;8.52;;
55003;SDS011;40900;52.710;6.438;2022-08-19T14:22:21;16.95;;;11.70;;
55003;SDS011;40900;52.710;6.438;2022-08-19T14:24:47;12.45;;;10.90;;
55003;SDS011;40900;52.710;6.438;2022-08-19T14:27:13;14.55;;;10.43;;
55003;SDS011;40900;52.710;6.438;2022-08-19T14:29:39;12.85;;;10.05;;
55003;SDS011;40900;52.710;6.438;2022-08-19T14:32:05;13.73;;;9.38;;
55003;SDS011;40900;52.710;6.438;2022-08-19T14:34:31;11.98;;;8.95;;
55003;SDS011;40900;52.710;6.438;2022-08-19T14:36:58;14.23;;;9.60;;
55003;SDS011;40900;52.710;6.438;2022-08-19T14:39:24;16.55;;;10.82;;
55003;SDS011;40900;52.710;6.438;2022-08-19T14:41:52;19.92;;;12.82;;
55003;SDS011;40900;52.710;6.438;2022-08-19T14:44:17;13.70;;;11.63;;